Time;durP1;ratioP1;P1;durP2;ratioP2;P2;SDS_P1;SDS_P2;PMS_P1;PMS_P2;Temp;Humidity;BMP_temperature;BMP_pressure;BME280_temperature;BME280_humidity;BME280_pressure;Samples;Min_cycle;Max_cycle;Signal;HPM_P1;HPM_P2
2021/12/23 00:02:00;;;;;;;;;;;;;;;-3.43;69.36;100129.84;5111920;28;19923;-72
2021/12/23 00:04:25;;;;;;;;;;;;;;;-3.41;69.88;100135.72;5112005;28;20444;-73
2021/12/23 00:06:51;;;;;;;;;;;;;;;-3.39;70.03;100133.78;5111650;28;19919;-72
2021/12/23 00:09:16;;;;;;;;;;;;;;;-3.36;70.24;100119.56;5111495;28;19955;-73
2021/12/23 00:11:42;;;;;;;;;;;;;;;-3.31;69.73;100130.38;5111651;28;20302;-72
2021/12/23 00:14:09;;;;;;;;;;;;;;;-3.28;69.88;100121.41;5090701;28;20367;-74
2021/12/23 00:16:47;;;;;;;;;;;;;;;-3.25;69.75;100123.69;5093031;28;19920;-72
2021/12/23 00:19:35;;;;;;;;;;;;;;;-3.22;69.91;100126.81;5111479;28;20402;-72
2021/12/23 00:24:42;;;;;;;;;;;;;;;-3.16;70.33;100114.06;5111235;28;19952;-72
2021/12/23 00:27:08;;;;;;;;;;;;;;;-3.16;70.39;100114.91;5110563;28;19920;-73
2021/12/23 00:29:34;;;;;;;;;;;;;;;-3.15;70.35;100113.94;5111718;28;19916;-74
2021/12/23 00:31:59;;;;;;;;;;;;;;;-3.12;70.14;100116.19;5093444;28;20332;-75
2021/12/23 00:34:25;;;;;;;;;;;;;;;-3.09;69.77;100109.84;5110946;28;19923;-73
2021/12/23 00:36:52;;;;;;;;;;;;;;;-3.07;69.80;100118.34;5093485;28;19915;-75
2021/12/23 00:39:17;;;;;;;;;;;;;;;-3.06;70.16;100117.38;5092888;28;19927;-74
2021/12/23 00:41:44;;;;;;;;;;;;;;;-3.07;69.43;100116.53;5092796;28;19920;-74
2021/12/23 00:44:10;;;;;;;;;;;;;;;-3.04;69.72;100112.78;5110637;28;19924;-75
2021/12/23 00:46:35;;;;;;;;;;;;;;;-3.06;69.64;100112.94;5111152;28;19923;-74
2021/12/23 00:49:00;;;;;;;;;;;;;;;-3.05;69.92;100116.41;5100511;28;19923;-73
2021/12/23 00:51:26;;;;;;;;;;;;;;;-3.02;69.55;100118.69;5110717;28;19923;-71
2021/12/23 00:53:53;;;;;;;;;;;;;;;-3.01;69.48;100116.91;5111521;28;19916;-72
2021/12/23 00:56:19;;;;;;;;;;;;;;;-2.99;69.07;100122.78;5110922;28;19922;-73
2021/12/23 00:58:44;;;;;;;;;;;;;;;-2.96;69.39;100120.66;5092623;28;19998;-72
2021/12/23 01:01:09;;;;;;;;;;;;;;;-2.95;68.81;100116.25;5111121;28;19915;-73
2021/12/23 01:03:35;;;;;;;;;;;;;;;-2.97;69.77;100124.25;5092085;28;19937;-72
2021/12/23 01:06:01;;;;;;;;;;;;;;;-2.95;69.21;100117.06;5110219;28;19920;-72
2021/12/23 01:08:27;;;;;;;;;;;;;;;-2.93;68.95;100109.88;5111192;28;19916;-72
2021/12/23 01:10:58;;;;;;;;;;;;;;;-2.91;69.01;100110.50;5111475;28;19920;-72
2021/12/23 01:13:28;;;;;;;;;;;;;;;-2.88;69.10;100108.56;5110574;28;19920;-73
2021/12/23 01:16:13;;;;;;;;;;;;;;;-2.86;68.63;100107.41;5092382;28;19923;-72
2021/12/23 01:18:53;;;;;;;;;;;;;;;-2.85;69.09;100111.66;5110704;28;20451;-72
2021/12/23 01:21:18;;;;;;;;;;;;;;;-2.83;69.12;100109.72;5092795;28;19916;-73
2021/12/23 01:23:51;;;;;;;;;;;;;;;-2.82;69.41;100102.69;5111066;28;20026;-73
2021/12/23 01:26:20;;;;;;;;;;;;;;;-2.83;68.76;100103.66;5109421;28;19919;-71
2021/12/23 01:28:47;;;;;;;;;;;;;;;-2.83;68.95;100101.03;5107636;28;19961;-71
2021/12/23 01:31:12;;;;;;;;;;;;;;;-2.82;69.33;100103.50;5110812;28;20374;-72
2021/12/23 01:33:37;;;;;;;;;;;;;;;-2.83;69.00;100099.25;5092021;28;19916;-71
2021/12/23 01:36:03;;;;;;;;;;;;;;;-2.83;69.02;100098.41;5111008;28;19958;-71
2021/12/23 01:38:28;;;;;;;;;;;;;;;-2.86;68.90;100091.72;5111024;28;19966;-72
2021/12/23 01:40:53;;;;;;;;;;;;;;;-2.87;68.78;100091.88;5110092;28;19923;-72
2021/12/23 01:43:18;;;;;;;;;;;;;;;-2.88;70.57;100088.47;5110198;28;19916;-72
2021/12/23 01:45:48;;;;;;;;;;;;;;;-2.91;69.63;100092.19;5092522;28;19916;-70
2021/12/23 01:48:13;;;;;;;;;;;;;;;-2.95;70.24;100084.84;5090197;28;19924;-72
2021/12/23 01:50:39;;;;;;;;;;;;;;;-2.99;70.21;100086.97;5098582;28;20014;-73
2021/12/23 01:53:05;;;;;;;;;;;;;;;-3.00;70.08;100094.94;5110369;28;19999;-72
2021/12/23 01:55:31;;;;;;;;;;;;;;;-3.04;69.91;100091.03;5110889;28;19958;-73
2021/12/23 01:57:57;;;;;;;;;;;;;;;-3.08;69.70;100095.78;5109786;28;19927;-72
2021/12/23 02:00:24;;;;;;;;;;;;;;;-3.10;70.38;100095.94;5110350;28;19984;-73
2021/12/23 02:02:50;;;;;;;;;;;;;;;-3.12;69.94;100092.66;5110469;28;19958;-73
2021/12/23 02:05:16;;;;;;;;;;;;;;;-3.14;69.86;100091.19;5089681;28;19916;-73
2021/12/23 02:07:42;;;;;;;;;;;;;;;-3.16;70.31;100087.91;5090820;28;19926;-73
2021/12/23 02:10:09;;;;;;;;;;;;;;;-3.17;69.54;100094.09;5093615;28;19916;-72
2021/12/23 02:12:35;;;;;;;;;;;;;;;-3.18;69.87;100087.25;5094193;28;19965;-75
2021/12/23 02:15:00;;;;;;;;;;;;;;;-3.22;69.63;100082.34;5101825;28;19919;-71
2021/12/23 02:17:25;;;;;;;;;;;;;;;-3.22;69.67;100086.75;5113862;28;20435;-71
2021/12/23 02:19:51;;;;;;;;;;;;;;;-3.24;70.48;100089.50;5094958;28;20019;-72
2021/12/23 02:22:17;;;;;;;;;;;;;;;-3.25;69.83;100097.53;5113613;28;19919;-71
2021/12/23 02:24:42;;;;;;;;;;;;;;;-3.28;69.93;100090.00;5114404;28;19920;-70
2021/12/23 02:27:09;;;;;;;;;;;;;;;-3.29;70.23;100093.59;5095021;28;19977;-71
2021/12/23 02:29:34;;;;;;;;;;;;;;;-3.31;70.68;100091.13;5113998;28;19915;-73
2021/12/23 02:31:59;;;;;;;;;;;;;;;-3.33;70.29;100080.03;5113677;28;20064;-72
2021/12/23 02:34:25;;;;;;;;;;;;;;;-3.36;70.83;100090.78;5112970;28;19934;-71
2021/12/23 02:36:54;;;;;;;;;;;;;;;-3.39;71.03;100083.28;5114013;28;19916;-72
2021/12/23 02:39:21;;;;;;;;;;;;;;;-3.40;70.53;100081.63;5113413;28;19926;-72
2021/12/23 02:41:47;;;;;;;;;;;;;;;-3.41;70.98;100086.03;5095147;28;19916;-71
2021/12/23 02:44:12;;;;;;;;;;;;;;;-3.41;70.86;100080.00;5094486;28;19942;-72
2021/12/23 02:46:37;;;;;;;;;;;;;;;-3.42;71.04;100083.59;5113749;28;19915;-72
2021/12/23 02:49:03;;;;;;;;;;;;;;;-3.44;70.75;100080.31;5112904;28;19920;-72
2021/12/23 02:51:28;;;;;;;;;;;;;;;-3.46;70.21;100082.28;5094574;28;19963;-72
2021/12/23 02:53:54;;;;;;;;;;;;;;;-3.48;70.98;100079.00;5113627;28;19916;-71
2021/12/23 02:56:19;;;;;;;;;;;;;;;-3.49;71.24;100087.81;5113114;28;19949;-70
2021/12/23 02:58:45;;;;;;;;;;;;;;;-3.51;70.92;100087.16;5113449;28;19920;-73
2021/12/23 03:01:11;;;;;;;;;;;;;;;-3.55;70.89;100082.25;5094646;28;19920;-73
2021/12/23 03:03:37;;;;;;;;;;;;;;;-3.57;70.12;100078.94;5112292;28;19971;-73
2021/12/23 03:06:02;;;;;;;;;;;;;;;-3.60;70.61;100074.06;5094578;28;19920;-72
2021/12/23 03:08:34;;;;;;;;;;;;;;;-3.62;71.01;100080.44;5113282;28;19916;-72
2021/12/23 03:10:59;;;;;;;;;;;;;;;-3.66;70.60;100079.91;5094478;28;19922;-72
2021/12/23 03:13:25;;;;;;;;;;;;;;;-3.79;71.14;100061.25;5112605;28;20302;-71
2021/12/23 03:15:50;;;;;;;;;;;;;;;-3.71;70.89;100082.16;5113218;28;20017;-71
2021/12/23 03:18:15;;;;;;;;;;;;;;;-3.75;71.10;100086.91;5111783;28;19920;-72
2021/12/23 03:20:41;;;;;;;;;;;;;;;-3.78;70.76;100097.66;5112070;28;19916;-72
2021/12/23 03:23:06;;;;;;;;;;;;;;;-3.80;71.02;100096.19;5112658;28;20442;-72
2021/12/23 03:25:31;;;;;;;;;;;;;;;-3.83;70.86;100097.31;5111946;28;19916;-72
2021/12/23 03:27:57;;;;;;;;;;;;;;;-3.85;70.88;100101.88;5112423;28;19920;-69
2021/12/23 03:30:22;;;;;;;;;;;;;;;-3.90;71.30;100097.13;5112353;28;19924;-72
2021/12/23 03:32:47;;;;;;;;;;;;;;;-3.91;71.12;100092.03;5112763;28;19959;-70
2021/12/23 03:35:13;;;;;;;;;;;;;;;-3.94;71.55;100098.41;5111995;28;20015;-71
2021/12/23 03:37:38;;;;;;;;;;;;;;;-3.97;71.87;100095.28;5111110;28;20386;-70
2021/12/23 03:40:04;;;;;;;;;;;;;;;-3.98;72.29;100106.72;5110068;28;20366;-69
2021/12/23 03:42:30;;;;;;;;;;;;;;;-3.99;72.46;100110.28;5112724;28;19915;-70
2021/12/23 03:44:55;;;;;;;;;;;;;;;-3.99;71.94;100112.91;5112930;28;19916;-72
2021/12/23 03:47:20;;;;;;;;;;;;;;;-4.02;71.66;100109.66;5111836;28;19962;-71
2021/12/23 03:49:45;;;;;;;;;;;;;;;-4.03;71.71;100113.22;5112356;28;19916;-70
2021/12/23 03:52:11;;;;;;;;;;;;;;;-4.03;71.87;100113.22;5111340;28;20010;-70
2021/12/23 03:54:36;;;;;;;;;;;;;;;-4.06;71.53;100112.72;5110545;28;19922;-70
2021/12/23 03:57:01;;;;;;;;;;;;;;;-4.12;71.96;100115.94;5109991;28;20374;-70
2021/12/23 03:59:27;;;;;;;;;;;;;;;-4.18;72.33;100115.56;5107967;28;19925;-70
2021/12/23 04:01:52;;;;;;;;;;;;;;;-4.23;71.87;100117.81;5110627;28;20499;-70
2021/12/23 04:04:17;;;;;;;;;;;;;;;-4.23;71.98;100124.84;5111575;28;20318;-70
2021/12/23 04:06:43;;;;;;;;;;;;;;;-4.25;72.30;100126.78;5111562;28;19927;-70
2021/12/23 04:09:08;;;;;;;;;;;;;;;-4.25;72.06;100129.41;5111126;28;19998;-70
2021/12/23 04:11:33;;;;;;;;;;;;;;;-4.24;72.16;100131.03;5111981;28;20286;-70
2021/12/23 04:13:59;;;;;;;;;;;;;;;-4.23;71.95;100135.28;5111618;28;20038;-71
2021/12/23 04:16:24;;;;;;;;;;;;;;;-4.24;71.46;100129.22;5111310;28;20377;-72
2021/12/23 04:18:51;;;;;;;;;;;;;;;-4.24;71.84;100136.25;5093451;28;19999;-72
2021/12/23 04:21:16;;;;;;;;;;;;;;;-4.26;72.09;100132.97;5111418;28;19922;-71
2021/12/23 04:23:42;;;;;;;;;;;;;;;-4.27;71.70;100136.56;5111512;28;19920;-71
2021/12/23 04:26:09;;;;;;;;;;;;;;;-4.27;71.67;100139.16;5111316;28;19923;-71
2021/12/23 04:28:44;;;;;;;;;;;;;;;-4.30;71.58;100144.72;5111691;28;19965;-72
2021/12/23 04:31:09;;;;;;;;;;;;;;;-4.34;71.58;100139.78;5110005;28;20357;-71
2021/12/23 04:33:34;;;;;;;;;;;;;;;-4.34;71.56;100146.81;5111041;28;19920;-69
2021/12/23 04:36:00;;;;;;;;;;;;;;;-4.37;71.13;100152.31;5093353;28;19923;-72
2021/12/23 04:38:25;;;;;;;;;;;;;;;-4.39;71.04;100146.44;5111475;28;20290;-70
2021/12/23 04:40:50;;;;;;;;;;;;;;;-4.40;71.32;100147.41;5092649;28;19953;-72
2021/12/23 04:43:15;;;;;;;;;;;;;;;-4.42;71.18;100150.19;5111271;28;19963;-71
2021/12/23 04:45:41;;;;;;;;;;;;;;;-4.44;71.04;100156.50;5110480;28;19916;-71
2021/12/23 04:48:06;;;;;;;;;;;;;;;-4.46;71.14;100151.44;5111074;28;20016;-72
2021/12/23 04:50:31;;;;;;;;;;;;;;;-4.48;71.43;100153.38;5111015;28;19958;-71
2021/12/23 04:52:57;;;;;;;;;;;;;;;-4.50;70.98;100158.75;5110473;28;19916;-72
2021/12/23 04:55:22;;;;;;;;;;;;;;;-4.51;71.41;100159.72;5110712;28;20004;-72
2021/12/23 04:57:48;;;;;;;;;;;;;;;-4.53;71.07;100163.44;5110860;28;19916;-71
2021/12/23 05:00:14;;;;;;;;;;;;;;;-4.54;71.55;100169.63;5110794;28;19922;-72
2021/12/23 05:02:40;;;;;;;;;;;;;;;-4.56;71.51;100159.34;5110714;28;20271;-72
2021/12/23 05:05:06;;;;;;;;;;;;;;;-4.58;71.16;100161.28;5092912;28;19916;-70
2021/12/23 05:07:31;;;;;;;;;;;;;;;-4.58;70.98;100157.84;5110783;28;20007;-71
2021/12/23 05:09:56;;;;;;;;;;;;;;;-4.59;70.86;100161.44;5110446;28;20411;-72
2021/12/23 05:12:22;;;;;;;;;;;;;;;-4.63;70.79;100160.09;5110873;28;19916;-72
2021/12/23 05:14:47;;;;;;;;;;;;;;;-4.67;70.74;100160.38;5111295;28;19915;-71
2021/12/23 05:17:12;;;;;;;;;;;;;;;-4.67;70.75;100156.97;5109748;28;19931;-70
2021/12/23 05:19:37;;;;;;;;;;;;;;;-4.71;71.09;100161.66;5111205;28;19923;-70
2021/12/23 05:22:03;;;;;;;;;;;;;;;-4.70;71.28;100159.88;5110329;28;20396;-73
2021/12/23 05:24:28;;;;;;;;;;;;;;;-4.71;70.92;100156.44;5109404;28;19920;-71
2021/12/23 05:26:53;;;;;;;;;;;;;;;-4.69;71.23;100153.69;5110132;28;19920;-71
2021/12/23 05:29:19;;;;;;;;;;;;;;;-4.71;71.00;100159.06;5110299;28;19959;-71
2021/12/23 05:31:44;;;;;;;;;;;;;;;-4.70;70.94;100158.09;5109607;28;19920;-71
2021/12/23 05:34:09;;;;;;;;;;;;;;;-4.70;71.06;100157.25;5110464;28;20371;-71
2021/12/23 05:36:35;;;;;;;;;;;;;;;-4.70;70.58;100168.53;5111003;28;19924;-72
2021/12/23 05:39:00;;;;;;;;;;;;;;;-4.69;70.97;100159.75;5110634;28;19919;-71
2021/12/23 05:41:27;;;;;;;;;;;;;;;-4.69;70.97;100153.69;5110487;28;19972;-70
2021/12/23 05:43:56;;;;;;;;;;;;;;;-4.70;71.00;100154.66;5094985;28;20299;-72
2021/12/23 05:46:21;;;;;;;;;;;;;;;-4.71;70.99;100147.78;5114432;28;19923;-72
2021/12/23 05:48:47;;;;;;;;;;;;;;;-4.72;71.20;100144.34;5114716;28;19916;-72
2021/12/23 05:51:12;;;;;;;;;;;;;;;-4.71;71.12;100158.22;5114410;28;20420;-72
2021/12/23 05:53:37;;;;;;;;;;;;;;;-4.69;71.18;100159.75;5113614;28;19951;-71
2021/12/23 05:56:03;;;;;;;;;;;;;;;-4.69;70.95;100153.69;5114783;28;19920;-72
2021/12/23 05:58:28;;;;;;;;;;;;;;;-4.67;71.20;100155.16;5114704;28;19919;-72
2021/12/23 06:00:53;;;;;;;;;;;;;;;-4.65;70.82;100160.25;5114097;28;20386;-71
2021/12/23 06:03:19;;;;;;;;;;;;;;;-4.66;71.15;100156.81;5114170;28;20008;-72
2021/12/23 06:05:44;;;;;;;;;;;;;;;-4.64;70.84;100158.47;5095927;28;19923;-72
2021/12/23 06:08:09;;;;;;;;;;;;;;;-4.61;71.33;100158.97;5114311;28;19978;-72
2021/12/23 06:10:35;;;;;;;;;;;;;;;-4.58;71.11;100157.84;5114118;28;19990;-71
2021/12/23 06:13:00;;;;;;;;;;;;;;;-4.55;71.42;100158.38;5113904;28;19981;-72
2021/12/23 06:15:25;;;;;;;;;;;;;;;-4.51;71.63;100164.13;5112960;28;19926;-71
2021/12/23 06:17:51;;;;;;;;;;;;;;;-4.48;71.74;100163.81;5113515;28;20387;-72
2021/12/23 06:20:16;;;;;;;;;;;;;;;-4.42;71.60;100165.84;5113116;28;19919;-72
2021/12/23 06:22:41;;;;;;;;;;;;;;;-4.36;71.96;100167.03;5094840;28;20336;-73
2021/12/23 06:25:08;;;;;;;;;;;;;;;-4.30;72.16;100165.59;5095085;28;19942;-71
2021/12/23 06:27:34;;;;;;;;;;;;;;;-4.23;71.95;100171.88;5113293;28;19920;-71
2021/12/23 06:29:59;;;;;;;;;;;;;;;-4.19;71.84;100168.81;5112609;28;20007;-72
2021/12/23 06:32:24;;;;;;;;;;;;;;;-4.12;71.85;100168.19;5113502;28;19916;-71
2021/12/23 06:34:50;;;;;;;;;;;;;;;-4.06;71.47;100178.84;5094960;28;20298;-69
2021/12/23 06:37:16;;;;;;;;;;;;;;;-3.97;71.33;100176.28;5112702;28;19962;-71
2021/12/23 06:39:41;;;;;;;;;;;;;;;-3.90;70.38;100183.34;5112963;28;20551;-71
2021/12/23 06:42:07;;;;;;;;;;;;;;;-3.81;70.38;100173.75;5113084;28;20314;-73
2021/12/23 06:44:32;;;;;;;;;;;;;;;-3.73;69.42;100181.66;5112381;28;20011;-71
2021/12/23 06:46:57;;;;;;;;;;;;;;;-3.65;68.65;100185.31;5112955;28;19922;-73
2021/12/23 06:49:23;;;;;;;;;;;;;;;-3.61;68.96;100192.69;5113190;28;19978;-71
2021/12/23 06:51:48;;;;;;;;;;;;;;;-3.52;68.43;100182.28;5112853;28;19927;-71
2021/12/23 06:54:14;;;;;;;;;;;;;;;-3.47;68.53;100185.25;5112346;28;20012;-71
2021/12/23 06:56:39;;;;;;;;;;;;;;;-3.41;68.46;100185.41;5113609;28;19923;-72
2021/12/23 06:59:05;;;;;;;;;;;;;;;-3.32;68.03;100188.09;5113523;28;19919;-71
2021/12/23 07:01:30;;;;;;;;;;;;;;;-3.23;68.55;100187.97;5112891;28;19922;-71
2021/12/23 07:06:37;;;;;;;;;;;;;;;-3.04;68.67;100193.09;5113266;28;19919;-71
2021/12/23 07:09:04;;;;;;;;;;;;;;;-2.93;68.85;100184.94;5112939;28;19916;-72
2021/12/23 07:11:29;;;;;;;;;;;;;;;-2.87;68.03;100184.31;5112996;28;19922;-71
2021/12/23 07:13:55;;;;;;;;;;;;;;;-2.78;67.61;100182.56;5113107;28;19916;-72
2021/12/23 07:16:20;;;;;;;;;;;;;;;-2.68;67.70;100185.84;5112219;28;20057;-71
2021/12/23 07:18:46;;;;;;;;;;;;;;;-2.61;66.74;100184.22;5113185;28;19916;-72
2021/12/23 07:21:11;;;;;;;;;;;;;;;-2.52;67.13;100187.66;5112884;28;19920;-72
2021/12/23 07:23:36;;;;;;;;;;;;;;;-2.40;67.18;100190.78;5112768;28;19922;-71
2021/12/23 07:26:01;;;;;;;;;;;;;;;-2.31;66.75;100181.13;5112711;28;19915;-71
2021/12/23 07:28:27;;;;;;;;;;;;;;;-2.21;66.75;100187.03;5112439;28;19938;-71
2021/12/23 07:30:54;;;;;;;;;;;;;;;-2.13;66.78;100189.63;5112195;28;19963;-71
2021/12/23 07:33:20;;;;;;;;;;;;;;;-2.05;65.43;100190.59;5112761;28;19923;-71
2021/12/23 07:35:45;;;;;;;;;;;;;;;-2.01;65.97;100195.38;5112535;28;20370;-73
2021/12/23 07:38:10;;;;;;;;;;;;;;;-1.98;66.38;100184.56;5093605;28;19916;-70
2021/12/23 07:40:36;;;;;;;;;;;;;;;-1.88;66.47;100188.78;5112616;28;20268;-72
2021/12/23 07:43:21;;;;;;;;;;;;;;;-1.81;65.86;100187.16;5112659;28;19955;-72
2021/12/23 07:45:46;;;;;;;;;;;;;;;-1.77;65.28;100196.31;5111906;28;19916;-72
2021/12/23 07:48:12;;;;;;;;;;;;;;;-1.72;65.38;100190.56;5112195;28;19922;-70
2021/12/23 07:50:37;;;;;;;;;;;;;;;-1.69;64.94;100193.69;5112382;28;19916;-71
2021/12/23 07:53:02;;;;;;;;;;;;;;;-1.67;65.21;100186.47;5111752;28;19934;-70
2021/12/23 07:55:28;;;;;;;;;;;;;;;-1.66;65.60;100187.28;5112177;28;20497;-71
2021/12/23 07:57:53;;;;;;;;;;;;;;;-1.63;65.38;100189.56;5112062;28;19916;-71
2021/12/23 08:00:19;;;;;;;;;;;;;;;-1.59;66.00;100195.31;5111918;28;19955;-71
2021/12/23 08:02:44;;;;;;;;;;;;;;;-1.52;65.71;100191.03;5112257;28;20370;-72
2021/12/23 08:05:10;;;;;;;;;;;;;;;-1.58;65.54;100182.00;5111996;28;19916;-71
2021/12/23 08:07:35;;;;;;;;;;;;;;;-1.42;65.39;100191.63;5111452;28;20350;-72
2021/12/23 08:10:01;;;;;;;;;;;;;;;-1.39;65.10;100185.22;5093727;28;20366;-71
2021/12/23 08:12:26;;;;;;;;;;;;;;;-1.35;65.25;100202.28;5111346;28;19916;-71
2021/12/23 08:14:51;;;;;;;;;;;;;;;-1.31;66.17;100191.28;5111619;28;19955;-72
2021/12/23 08:17:17;;;;;;;;;;;;;;;-1.26;66.30;100197.81;5111780;28;19916;-71
2021/12/23 08:19:42;;;;;;;;;;;;;;;-1.19;66.42;100199.59;5112301;28;20345;-72
2021/12/23 08:22:08;;;;;;;;;;;;;;;-1.10;65.81;100194.31;5111364;28;20014;-72
2021/12/23 08:24:34;;;;;;;;;;;;;;;-1.00;66.19;100200.16;5111180;28;19955;-71
2021/12/23 08:26:59;;;;;;;;;;;;;;;-0.90;66.48;100197.34;5111582;28;19962;-71
2021/12/23 08:29:26;;;;;;;;;;;;;;;-0.78;66.12;100192.50;5110860;28;19916;-71
2021/12/23 08:31:53;;;;;;;;;;;;;;;-0.67;65.60;100192.94;5111071;28;20283;-71
2021/12/23 08:34:22;;;;;;;;;;;;;;;-0.60;65.00;100197.50;5093040;28;19919;-70
2021/12/23 08:36:47;;;;;;;;;;;;;;;-0.50;64.60;100192.81;5110931;28;19941;-72
2021/12/23 08:39:13;;;;;;;;;;;;;;;-0.39;63.28;100196.84;5111477;28;19923;-72
2021/12/23 08:41:38;;;;;;;;;;;;;;;-0.31;62.46;100193.38;5093446;28;19994;-72
2021/12/23 08:44:04;;;;;;;;;;;;;;;-0.23;62.04;100186.22;5110405;28;19923;-72
2021/12/23 08:46:29;;;;;;;;;;;;;;;-0.10;61.78;100184.81;5111228;28;20014;-72
2021/12/23 08:48:54;;;;;;;;;;;;;;;-0.01;61.16;100184.56;5111523;28;19981;-72
2021/12/23 08:51:20;;;;;;;;;;;;;;;0.09;61.34;100180.88;5110766;28;19930;-72
2021/12/23 08:53:45;;;;;;;;;;;;;;;0.15;60.72;100175.69;5111440;28;20435;-72
2021/12/23 08:56:10;;;;;;;;;;;;;;;0.21;60.08;100174.16;5111255;28;20415;-70
2021/12/23 08:58:36;;;;;;;;;;;;;;;0.29;59.58;100173.25;5092356;28;19998;-70
2021/12/23 09:01:02;;;;;;;;;;;;;;;0.36;58.73;100168.09;5111284;28;20298;-70
2021/12/23 09:03:31;;;;;;;;;;;;;;;0.43;58.36;100159.28;5110931;28;19916;-72
2021/12/23 09:05:57;;;;;;;;;;;;;;;0.51;57.93;100147.84;5110493;28;19919;-72
2021/12/23 09:08:22;;;;;;;;;;;;;;;0.57;57.06;100148.94;5092446;28;20397;-70
2021/12/23 09:10:48;;;;;;;;;;;;;;;0.61;56.25;100145.75;5111245;28;19916;-70
2021/12/23 09:13:13;;;;;;;;;;;;;;;0.63;55.66;100146.41;5110693;28;19920;-71
2021/12/23 09:15:38;;;;;;;;;;;;;;;0.68;55.32;100137.13;5111177;28;19916;-70
2021/12/23 09:18:04;;;;;;;;;;;;;;;0.70;54.13;100140.41;5111802;28;20014;-70
2021/12/23 09:20:29;;;;;;;;;;;;;;;0.72;53.96;100131.31;5114560;28;19916;-70
2021/12/23 09:22:54;;;;;;;;;;;;;;;0.75;53.83;100125.66;5115209;28;19916;-70
2021/12/23 09:25:30;;;;;;;;;;;;;;;0.81;53.51;100129.38;5114903;28;19923;-71
2021/12/23 09:28:06;;;;;;;;;;;;;;;0.84;53.97;100122.94;5114084;28;19920;-71
2021/12/23 09:33:15;;;;;;;;;;;;;;;0.99;53.84;100104.44;5115025;28;19976;-71
2021/12/23 09:35:41;;;;;;;;;;;;;;;1.04;54.02;100109.97;5114242;28;19915;-71
2021/12/23 09:38:07;;;;;;;;;;;;;;;1.07;53.73;100104.34;5114988;28;19965;-71
2021/12/23 09:40:33;;;;;;;;;;;;;;;1.07;53.85;100101.69;5114779;28;20431;-71
2021/12/23 09:43:03;;;;;;;;;;;;;;;1.12;54.05;100094.03;5095834;28;19916;-70
2021/12/23 09:45:31;;;;;;;;;;;;;;;1.11;53.25;100095.03;5114575;28;19916;-70
2021/12/23 09:47:58;;;;;;;;;;;;;;;1.15;54.11;100095.47;5114959;28;19916;-70
2021/12/23 09:50:27;;;;;;;;;;;;;;;1.18;52.96;100092.47;5095321;28;19927;-70
2021/12/23 09:52:53;;;;;;;;;;;;;;;1.21;53.67;100090.28;5114667;28;19915;-71
2021/12/23 09:55:20;;;;;;;;;;;;;;;1.24;52.87;100082.00;5114604;28;19923;-71
2021/12/23 09:57:50;;;;;;;;;;;;;;;1.28;52.19;100079.78;5095838;28;20019;-71
2021/12/23 10:00:19;;;;;;;;;;;;;;;1.34;52.66;100079.03;5114414;28;19916;-71
2021/12/23 10:02:44;;;;;;;;;;;;;;;1.35;52.41;100072.75;5114988;28;20366;-71
2021/12/23 10:05:15;;;;;;;;;;;;;;;1.41;52.63;100079.09;5113820;28;19923;-71
2021/12/23 10:07:42;;;;;;;;;;;;;;;1.48;52.06;100072.06;5114511;28;19920;-71
2021/12/23 10:10:54;;;;;;;;;;;;;;;1.47;51.59;100064.34;5114554;28;19947;-71
2021/12/23 10:32:51;;;;;;;;;;;;;;;1.91;50.62;100035.03;5113893;28;19974;-71
2021/12/23 10:38:08;;;;;;;;;;;;;;;1.83;51.29;100024.66;5113887;28;19923;-71
2021/12/23 10:40:34;;;;;;;;;;;;;;;1.83;51.50;100018.53;5113426;28;20014;-71
2021/12/23 10:43:00;;;;;;;;;;;;;;;1.71;51.06;100020.91;5094891;28;20019;-71
2021/12/23 10:45:32;;;;;;;;;;;;;;;1.66;51.75;100018.03;5113377;28;20366;-71
2021/12/23 10:48:03;;;;;;;;;;;;;;;1.64;51.85;100014.78;5113639;28;19973;-70
2021/12/23 10:50:35;;;;;;;;;;;;;;;1.61;52.14;100013.34;5112754;28;19920;-71
2021/12/23 10:53:04;;;;;;;;;;;;;;;1.63;51.82;100003.41;5113363;28;20035;-71
2021/12/23 10:58:16;;;;;;;;;;;;;;;1.60;52.30;100004.63;5112412;28;20352;-71
2021/12/23 11:00:45;;;;;;;;;;;;;;;1.55;52.36;100001.75;5113454;28;19916;-71
2021/12/23 11:03:14;;;;;;;;;;;;;;;1.52;52.29;99999.50;5113352;28;20313;-70
2021/12/23 11:05:47;;;;;;;;;;;;;;;1.49;52.34;99988.50;5112562;28;19916;-71
2021/12/23 11:37:56;;;;;;;;;;;;;;;1.47;51.24;99959.72;5108853;28;19980;-71
2021/12/23 11:40:48;;;;;;;;;;;;;;;1.54;51.87;99960.56;5092958;28;19916;-70
2021/12/23 11:45:40;;;;;;;;;;;;;;;1.47;50.73;99954.44;5112288;28;19916;-70
2021/12/23 11:48:08;;;;;;;;;;;;;;;1.46;51.27;99949.38;5094151;28;20333;-69
2021/12/23 11:50:42;;;;;;;;;;;;;;;1.43;51.05;99943.47;5093149;28;19988;-69
2021/12/23 11:53:08;;;;;;;;;;;;;;;1.46;50.63;99936.19;5112316;28;19916;-71
2021/12/23 11:55:34;;;;;;;;;;;;;;;1.50;51.60;99932.16;5093462;28;19927;-69
2021/12/23 11:57:59;;;;;;;;;;;;;;;1.54;51.56;99923.66;5111723;28;19916;-71
2021/12/23 12:00:42;;;;;;;;;;;;;;;1.62;51.41;99920.03;5111987;28;19915;-72
2021/12/23 12:03:08;;;;;;;;;;;;;;;1.68;51.58;99921.09;5093510;28;20279;-72
2021/12/23 12:05:34;;;;;;;;;;;;;;;1.73;51.55;99916.88;5111494;28;19926;-69
2021/12/23 12:08:07;;;;;;;;;;;;;;;1.80;50.97;99916.88;5112288;28;20006;-69
2021/12/23 12:10:33;;;;;;;;;;;;;;;1.81;50.32;99921.16;5111304;28;19916;-69
2021/12/23 12:13:01;;;;;;;;;;;;;;;1.80;50.26;99922.16;5112033;28;20383;-69
2021/12/23 12:15:39;;;;;;;;;;;;;;;1.82;50.54;99921.97;5111530;28;19934;-69
2021/12/23 12:18:11;;;;;;;;;;;;;;;1.84;49.91;99920.75;5111012;28;20694;-69
2021/12/23 12:20:45;;;;;;;;;;;;;;;1.84;50.14;99926.03;5111375;28;19920;-69
2021/12/23 12:23:13;;;;;;;;;;;;;;;1.89;50.31;99926.25;5110947;28;19916;-70
2021/12/23 12:25:38;;;;;;;;;;;;;;;1.94;49.93;99919.56;5110333;28;19996;-71
2021/12/23 12:28:03;;;;;;;;;;;;;;;1.98;49.91;99916.34;5092998;28;19977;-71
2021/12/23 12:30:34;;;;;;;;;;;;;;;2.03;49.81;99913.94;5111430;28;19919;-71
2021/12/23 12:33:02;;;;;;;;;;;;;;;2.08;49.34;99916.78;5111046;28;20353;-71
2021/12/23 12:35:27;;;;;;;;;;;;;;;2.13;49.19;99929.38;5110606;28;19916;-71
2021/12/23 12:37:53;;;;;;;;;;;;;;;2.20;48.67;99924.94;5111275;28;20010;-69
2021/12/23 12:40:18;;;;;;;;;;;;;;;2.28;48.36;99926.56;5110494;28;19969;-69
2021/12/23 12:42:47;;;;;;;;;;;;;;;2.32;48.38;99930.47;5111086;28;19969;-69
2021/12/23 12:45:23;;;;;;;;;;;;;;;2.37;48.50;99925.38;5110835;28;19973;-71
2021/12/23 12:47:54;;;;;;;;;;;;;;;2.43;48.02;99925.59;5110303;28;20334;-70
2021/12/23 12:50:21;;;;;;;;;;;;;;;2.45;47.86;99923.56;5110025;28;20401;-70
2021/12/23 12:52:47;;;;;;;;;;;;;;;2.48;47.92;99918.69;5110519;28;20343;-70
2021/12/23 12:55:25;;;;;;;;;;;;;;;2.47;47.49;99911.00;5110178;28;19923;-70
2021/12/23 12:57:52;;;;;;;;;;;;;;;2.50;47.71;99907.94;5092497;28;19922;-70
2021/12/23 13:00:20;;;;;;;;;;;;;;;2.50;47.10;99905.28;5110093;28;19916;-70
2021/12/23 13:02:51;;;;;;;;;;;;;;;2.51;47.57;99899.81;5110131;28;19916;-70
2021/12/23 13:05:23;;;;;;;;;;;;;;;2.54;47.08;99898.63;5110349;28;19916;-70
2021/12/23 13:07:49;;;;;;;;;;;;;;;2.53;46.95;99891.69;5111092;28;19920;-70
2021/12/23 13:10:18;;;;;;;;;;;;;;;2.51;46.92;99885.81;5109964;28;19943;-70
2021/12/23 13:12:49;;;;;;;;;;;;;;;2.54;47.22;99890.69;5110604;28;20342;-70
2021/12/23 13:15:17;;;;;;;;;;;;;;;2.56;46.85;99891.28;5111229;28;19916;-71
2021/12/23 13:17:51;;;;;;;;;;;;;;;2.53;45.77;99889.88;5109494;28;19999;-70
2021/12/23 13:20:17;;;;;;;;;;;;;;;2.48;46.72;99894.09;5092236;28;19927;-70
2021/12/23 13:22:44;;;;;;;;;;;;;;;2.47;46.48;99895.16;5110571;28;19920;-70
2021/12/23 13:25:10;;;;;;;;;;;;;;;2.47;45.96;99897.78;5091098;28;19927;-70
2021/12/23 13:27:39;;;;;;;;;;;;;;;2.47;46.67;99897.78;5092415;28;19920;-70
2021/12/23 13:30:05;;;;;;;;;;;;;;;2.48;46.40;99894.09;5090684;28;20010;-70
2021/12/23 13:32:31;;;;;;;;;;;;;;;2.47;46.77;99893.31;5102216;28;19931;-71
2021/12/23 13:35:06;;;;;;;;;;;;;;;2.50;46.79;99889.44;5111157;28;20336;-71
2021/12/23 13:37:31;;;;;;;;;;;;;;;2.51;46.80;99889.25;5111178;28;19922;-71
2021/12/23 13:39:57;;;;;;;;;;;;;;;2.49;46.67;99895.75;5110405;28;20427;-71
2021/12/23 13:42:22;;;;;;;;;;;;;;;2.49;46.59;99898.38;5110699;28;19973;-71
2021/12/23 13:44:50;;;;;;;;;;;;;;;2.50;46.55;99900.84;5092404;28;20299;-71